sensor_id;sensor_type;location;lat;lon;timestamp;P1;durP1;ratioP1;P2;durP2;ratioP2
13250;SDS011;6692;50.710;7.180;2023-03-18T00:00:19;377.77;;;363.93;;
13250;SDS011;6692;50.710;7.180;2023-03-18T00:02:20;366.90;;;353.23;;
13250;SDS011;6692;50.710;7.180;2023-03-18T00:04:21;376.10;;;362.43;;
13250;SDS011;6692;50.710;7.180;2023-03-18T00:06:21;374.23;;;360.20;;
13250;SDS011;6692;50.710;7.180;2023-03-18T00:08:23;385.03;;;370.87;;
13250;SDS011;6692;50.710;7.180;2023-03-18T00:10:24;387.27;;;373.10;;
13250;SDS011;6692;50.710;7.180;2023-03-18T00:12:24;371.43;;;357.80;;
13250;SDS011;6692;50.710;7.180;2023-03-18T00:14:25;371.03;;;357.13;;
13250;SDS011;6692;50.710;7.180;2023-03-18T00:16:26;367.67;;;353.80;;
13250;SDS011;6692;50.710;7.180;2023-03-18T00:18:27;381.97;;;367.80;;
13250;SDS011;6692;50.710;7.180;2023-03-18T00:20:28;377.57;;;363.57;;
13250;SDS011;6692;50.710;7.180;2023-03-18T00:22:28;392.47;;;377.93;;
13250;SDS011;6692;50.710;7.180;2023-03-18T00:24:29;383.80;;;369.50;;
13250;SDS011;6692;50.710;7.180;2023-03-18T00:26:30;402.10;;;387.00;;
13250;SDS011;6692;50.710;7.180;2023-03-18T00:28:31;404.07;;;389.00;;
13250;SDS011;6692;50.710;7.180;2023-03-18T00:30:32;382.60;;;368.37;;
13250;SDS011;6692;50.710;7.180;2023-03-18T00:32:32;401.83;;;386.83;;
13250;SDS011;6692;50.710;7.180;2023-03-18T00:34:33;396.50;;;381.87;;
13250;SDS011;6692;50.710;7.180;2023-03-18T00:36:33;401.43;;;386.50;;
13250;SDS011;6692;50.710;7.180;2023-03-18T00:38:34;420.20;;;404.37;;
13250;SDS011;6692;50.710;7.180;2023-03-18T00:40:35;404.50;;;389.30;;
13250;SDS011;6692;50.710;7.180;2023-03-18T00:42:42;405.93;;;391.00;;
13250;SDS011;6692;50.710;7.180;2023-03-18T00:44:43;402.43;;;387.20;;
13250;SDS011;6692;50.710;7.180;2023-03-18T00:46:44;386.87;;;372.47;;
13250;SDS011;6692;50.710;7.180;2023-03-18T00:48:45;402.50;;;387.53;;
13250;SDS011;6692;50.710;7.180;2023-03-18T00:50:45;397.17;;;382.37;;
13250;SDS011;6692;50.710;7.180;2023-03-18T00:52:46;392.87;;;378.20;;
13250;SDS011;6692;50.710;7.180;2023-03-18T00:54:47;401.77;;;387.00;;
13250;SDS011;6692;50.710;7.180;2023-03-18T00:56:48;398.90;;;384.07;;
13250;SDS011;6692;50.710;7.180;2023-03-18T00:58:49;394.37;;;379.83;;
13250;SDS011;6692;50.710;7.180;2023-03-18T01:00:50;386.87;;;372.17;;
13250;SDS011;6692;50.710;7.180;2023-03-18T01:02:51;387.07;;;372.77;;
13250;SDS011;6692;50.710;7.180;2023-03-18T01:04:51;378.17;;;363.97;;
13250;SDS011;6692;50.710;7.180;2023-03-18T01:06:52;395.93;;;381.23;;
13250;SDS011;6692;50.710;7.180;2023-03-18T01:08:53;395.50;;;381.07;;
13250;SDS011;6692;50.710;7.180;2023-03-18T01:10:53;384.43;;;370.10;;
13250;SDS011;6692;50.710;7.180;2023-03-18T01:12:54;386.83;;;372.40;;
13250;SDS011;6692;50.710;7.180;2023-03-18T01:14:55;384.83;;;370.67;;
13250;SDS011;6692;50.710;7.180;2023-03-18T01:16:56;377.57;;;363.90;;
13250;SDS011;6692;50.710;7.180;2023-03-18T01:18:56;385.97;;;371.70;;
13250;SDS011;6692;50.710;7.180;2023-03-18T01:20:57;385.77;;;371.63;;
13250;SDS011;6692;50.710;7.180;2023-03-18T01:22:58;382.00;;;367.80;;
13250;SDS011;6692;50.710;7.180;2023-03-18T01:24:58;359.07;;;345.80;;
13250;SDS011;6692;50.710;7.180;2023-03-18T01:26:59;345.73;;;332.87;;
13250;SDS011;6692;50.710;7.180;2023-03-18T01:29:00;337.40;;;324.83;;
13250;SDS011;6692;50.710;7.180;2023-03-18T01:31:01;352.77;;;339.57;;
13250;SDS011;6692;50.710;7.180;2023-03-18T01:33:01;351.57;;;338.40;;
13250;SDS011;6692;50.710;7.180;2023-03-18T01:35:02;354.33;;;341.03;;
13250;SDS011;6692;50.710;7.180;2023-03-18T01:37:03;367.83;;;354.30;;
13250;SDS011;6692;50.710;7.180;2023-03-18T01:39:05;344.60;;;332.00;;
13250;SDS011;6692;50.710;7.180;2023-03-18T01:41:06;346.90;;;334.10;;
13250;SDS011;6692;50.710;7.180;2023-03-18T01:43:12;360.67;;;347.77;;
13250;SDS011;6692;50.710;7.180;2023-03-18T01:45:15;351.00;;;338.10;;
13250;SDS011;6692;50.710;7.180;2023-03-18T01:47:16;337.67;;;325.43;;
13250;SDS011;6692;50.710;7.180;2023-03-18T01:49:20;341.90;;;329.37;;
13250;SDS011;6692;50.710;7.180;2023-03-18T01:51:19;348.43;;;335.70;;
13250;SDS011;6692;50.710;7.180;2023-03-18T01:53:20;358.27;;;345.30;;
13250;SDS011;6692;50.710;7.180;2023-03-18T01:55:21;336.83;;;324.63;;
13250;SDS011;6692;50.710;7.180;2023-03-18T01:57:22;354.27;;;341.23;;
13250;SDS011;6692;50.710;7.180;2023-03-18T01:59:24;363.30;;;349.93;;
13250;SDS011;6692;50.710;7.180;2023-03-18T02:01:25;369.17;;;355.63;;
13250;SDS011;6692;50.710;7.180;2023-03-18T02:03:24;352.00;;;339.10;;
13250;SDS011;6692;50.710;7.180;2023-03-18T02:05:25;352.50;;;339.43;;
13250;SDS011;6692;50.710;7.180;2023-03-18T02:07:26;348.40;;;335.57;;
13250;SDS011;6692;50.710;7.180;2023-03-18T02:09:26;331.57;;;319.40;;
13250;SDS011;6692;50.710;7.180;2023-03-18T02:11:27;340.27;;;327.80;;
13250;SDS011;6692;50.710;7.180;2023-03-18T02:13:27;320.97;;;309.47;;
13250;SDS011;6692;50.710;7.180;2023-03-18T02:15:29;301.20;;;290.33;;
13250;SDS011;6692;50.710;7.180;2023-03-18T02:17:30;303.37;;;292.73;;
13250;SDS011;6692;50.710;7.180;2023-03-18T02:19:35;277.63;;;267.73;;
13250;SDS011;6692;50.710;7.180;2023-03-18T02:21:45;261.53;;;252.27;;
13250;SDS011;6692;50.710;7.180;2023-03-18T02:23:49;286.60;;;276.33;;
13250;SDS011;6692;50.710;7.180;2023-03-18T02:25:54;292.27;;;281.70;;
13250;SDS011;6692;50.710;7.180;2023-03-18T02:28:00;289.10;;;278.93;;
13250;SDS011;6692;50.710;7.180;2023-03-18T02:30:04;304.87;;;293.87;;
13250;SDS011;6692;50.710;7.180;2023-03-18T02:32:03;322.83;;;311.33;;
13250;SDS011;6692;50.710;7.180;2023-03-18T02:34:04;321.27;;;309.73;;
13250;SDS011;6692;50.710;7.180;2023-03-18T02:36:06;321.67;;;310.10;;
13250;SDS011;6692;50.710;7.180;2023-03-18T02:38:06;321.90;;;310.30;;
13250;SDS011;6692;50.710;7.180;2023-03-18T02:42:26;309.40;;;298.20;;
13250;SDS011;6692;50.710;7.180;2023-03-18T02:44:17;315.43;;;304.07;;
13250;SDS011;6692;50.710;7.180;2023-03-18T02:46:22;335.63;;;323.50;;
13250;SDS011;6692;50.710;7.180;2023-03-18T02:48:28;331.80;;;319.70;;
13250;SDS011;6692;50.710;7.180;2023-03-18T02:50:27;339.50;;;327.27;;
13250;SDS011;6692;50.710;7.180;2023-03-18T02:52:28;344.83;;;331.93;;
13250;SDS011;6692;50.710;7.180;2023-03-18T02:54:29;355.83;;;342.83;;
13250;SDS011;6692;50.710;7.180;2023-03-18T02:56:30;359.90;;;346.50;;
13250;SDS011;6692;50.710;7.180;2023-03-18T02:58:30;347.33;;;334.27;;
13250;SDS011;6692;50.710;7.180;2023-03-18T03:00:32;338.20;;;326.00;;
13250;SDS011;6692;50.710;7.180;2023-03-18T03:02:33;314.97;;;303.63;;
13250;SDS011;6692;50.710;7.180;2023-03-18T03:04:33;322.13;;;310.37;;
13250;SDS011;6692;50.710;7.180;2023-03-18T03:06:34;317.50;;;306.00;;
13250;SDS011;6692;50.710;7.180;2023-03-18T03:08:35;333.93;;;322.10;;
13250;SDS011;6692;50.710;7.180;2023-03-18T03:10:35;315.13;;;304.03;;
13250;SDS011;6692;50.710;7.180;2023-03-18T03:12:36;305.23;;;294.47;;
13250;SDS011;6692;50.710;7.180;2023-03-18T03:14:37;296.27;;;285.63;;
13250;SDS011;6692;50.710;7.180;2023-03-18T03:16:38;286.33;;;275.93;;
13250;SDS011;6692;50.710;7.180;2023-03-18T03:18:39;294.33;;;283.97;;
13250;SDS011;6692;50.710;7.180;2023-03-18T03:20:39;292.13;;;281.73;;
13250;SDS011;6692;50.710;7.180;2023-03-18T03:22:40;287.60;;;277.50;;
13250;SDS011;6692;50.710;7.180;2023-03-18T03:24:40;293.47;;;282.93;;
13250;SDS011;6692;50.710;7.180;2023-03-18T03:26:41;290.23;;;280.20;;
13250;SDS011;6692;50.710;7.180;2023-03-18T03:28:42;276.03;;;266.17;;
13250;SDS011;6692;50.710;7.180;2023-03-18T03:30:43;286.53;;;276.43;;
13250;SDS011;6692;50.710;7.180;2023-03-18T03:32:43;284.90;;;274.70;;
13250;SDS011;6692;50.710;7.180;2023-03-18T03:34:45;283.30;;;273.33;;
13250;SDS011;6692;50.710;7.180;2023-03-18T03:36:46;290.50;;;280.27;;
13250;SDS011;6692;50.710;7.180;2023-03-18T03:38:48;294.33;;;283.90;;
13250;SDS011;6692;50.710;7.180;2023-03-18T03:40:48;292.93;;;282.77;;
13250;SDS011;6692;50.710;7.180;2023-03-18T03:42:49;278.57;;;268.67;;
13250;SDS011;6692;50.710;7.180;2023-03-18T03:44:50;271.53;;;262.00;;
13250;SDS011;6692;50.710;7.180;2023-03-18T03:46:51;280.90;;;270.93;;
13250;SDS011;6692;50.710;7.180;2023-03-18T03:48:51;296.27;;;285.67;;
13250;SDS011;6692;50.710;7.180;2023-03-18T03:50:52;282.30;;;272.20;;
13250;SDS011;6692;50.710;7.180;2023-03-18T03:52:53;292.00;;;281.60;;
13250;SDS011;6692;50.710;7.180;2023-03-18T03:54:54;284.40;;;274.27;;
13250;SDS011;6692;50.710;7.180;2023-03-18T03:56:54;280.20;;;269.97;;
13250;SDS011;6692;50.710;7.180;2023-03-18T03:58:55;280.43;;;270.53;;
13250;SDS011;6692;50.710;7.180;2023-03-18T04:00:56;286.13;;;275.83;;
13250;SDS011;6692;50.710;7.180;2023-03-18T04:02:56;275.63;;;266.00;;
13250;SDS011;6692;50.710;7.180;2023-03-18T04:04:57;266.70;;;257.33;;
13250;SDS011;6692;50.710;7.180;2023-03-18T04:06:58;270.33;;;260.77;;
13250;SDS011;6692;50.710;7.180;2023-03-18T04:08:59;263.30;;;253.97;;
13250;SDS011;6692;50.710;7.180;2023-03-18T04:11:00;276.37;;;266.77;;
13250;SDS011;6692;50.710;7.180;2023-03-18T04:13:02;267.23;;;257.83;;
13250;SDS011;6692;50.710;7.180;2023-03-18T04:15:02;271.10;;;261.70;;
13250;SDS011;6692;50.710;7.180;2023-03-18T04:17:03;249.13;;;240.33;;
13250;SDS011;6692;50.710;7.180;2023-03-18T04:19:04;252.73;;;243.93;;
13250;SDS011;6692;50.710;7.180;2023-03-18T04:21:05;252.37;;;243.30;;
13250;SDS011;6692;50.710;7.180;2023-03-18T04:23:05;249.30;;;240.70;;
13250;SDS011;6692;50.710;7.180;2023-03-18T04:25:07;243.50;;;234.97;;
13250;SDS011;6692;50.710;7.180;2023-03-18T04:27:08;256.43;;;247.43;;
13250;SDS011;6692;50.710;7.180;2023-03-18T04:29:09;247.80;;;239.10;;
13250;SDS011;6692;50.710;7.180;2023-03-18T04:31:10;246.83;;;238.27;;
13250;SDS011;6692;50.710;7.180;2023-03-18T04:33:10;251.90;;;243.07;;
13250;SDS011;6692;50.710;7.180;2023-03-18T04:35:11;245.00;;;236.37;;
13250;SDS011;6692;50.710;7.180;2023-03-18T04:37:13;243.23;;;234.67;;
13250;SDS011;6692;50.710;7.180;2023-03-18T04:39:13;254.07;;;245.13;;
13250;SDS011;6692;50.710;7.180;2023-03-18T04:41:14;241.33;;;232.93;;
13250;SDS011;6692;50.710;7.180;2023-03-18T04:43:16;252.37;;;243.53;;
13250;SDS011;6692;50.710;7.180;2023-03-18T04:45:17;238.03;;;229.80;;
13250;SDS011;6692;50.710;7.180;2023-03-18T04:47:18;249.33;;;240.60;;
13250;SDS011;6692;50.710;7.180;2023-03-18T04:49:19;231.70;;;223.70;;
13250;SDS011;6692;50.710;7.180;2023-03-18T04:51:19;218.17;;;210.67;;
13250;SDS011;6692;50.710;7.180;2023-03-18T04:53:21;221.07;;;213.30;;
13250;SDS011;6692;50.710;7.180;2023-03-18T04:55:22;213.43;;;205.73;;
13250;SDS011;6692;50.710;7.180;2023-03-18T04:57:24;216.13;;;208.43;;
13250;SDS011;6692;50.710;7.180;2023-03-18T04:59:25;229.00;;;220.97;;
13250;SDS011;6692;50.710;7.180;2023-03-18T05:01:25;212.83;;;205.37;;
13250;SDS011;6692;50.710;7.180;2023-03-18T05:03:27;208.87;;;201.67;;
13250;SDS011;6692;50.710;7.180;2023-03-18T05:05:29;216.03;;;208.07;;
13250;SDS011;6692;50.710;7.180;2023-03-18T05:07:28;214.97;;;207.47;;
13250;SDS011;6692;50.710;7.180;2023-03-18T05:09:29;213.77;;;206.17;;
13250;SDS011;6692;50.710;7.180;2023-03-18T05:11:31;219.67;;;211.77;;
13250;SDS011;6692;50.710;7.180;2023-03-18T05:13:31;204.23;;;196.93;;
13250;SDS011;6692;50.710;7.180;2023-03-18T05:15:32;215.80;;;208.17;;
13250;SDS011;6692;50.710;7.180;2023-03-18T05:17:33;202.10;;;195.10;;
13250;SDS011;6692;50.710;7.180;2023-03-18T05:19:35;195.17;;;188.37;;
13250;SDS011;6692;50.710;7.180;2023-03-18T05:21:36;192.07;;;185.17;;
13250;SDS011;6692;50.710;7.180;2023-03-18T05:23:37;203.60;;;196.47;;
13250;SDS011;6692;50.710;7.180;2023-03-18T05:25:38;203.40;;;196.37;;
13250;SDS011;6692;50.710;7.180;2023-03-18T05:27:39;195.47;;;188.60;;
13250;SDS011;6692;50.710;7.180;2023-03-18T05:29:39;204.97;;;197.80;;
13250;SDS011;6692;50.710;7.180;2023-03-18T05:31:40;189.60;;;182.97;;
13250;SDS011;6692;50.710;7.180;2023-03-18T05:33:41;188.97;;;182.37;;
13250;SDS011;6692;50.710;7.180;2023-03-18T05:35:41;194.17;;;187.37;;
13250;SDS011;6692;50.710;7.180;2023-03-18T05:37:42;195.13;;;188.27;;
13250;SDS011;6692;50.710;7.180;2023-03-18T05:39:43;183.60;;;177.03;;
13250;SDS011;6692;50.710;7.180;2023-03-18T05:41:44;183.60;;;177.10;;
13250;SDS011;6692;50.710;7.180;2023-03-18T05:43:45;177.43;;;171.13;;
13250;SDS011;6692;50.710;7.180;2023-03-18T05:45:46;173.60;;;167.37;;
13250;SDS011;6692;50.710;7.180;2023-03-18T05:47:46;172.87;;;166.83;;
13250;SDS011;6692;50.710;7.180;2023-03-18T05:49:47;172.07;;;166.03;;
13250;SDS011;6692;50.710;7.180;2023-03-18T05:51:48;170.37;;;164.27;;
13250;SDS011;6692;50.710;7.180;2023-03-18T05:53:49;175.20;;;169.10;;
13250;SDS011;6692;50.710;7.180;2023-03-18T05:55:49;169.77;;;163.77;;
13250;SDS011;6692;50.710;7.180;2023-03-18T05:57:50;186.80;;;180.20;;
13250;SDS011;6692;50.710;7.180;2023-03-18T05:59:51;176.10;;;169.97;;
13250;SDS011;6692;50.710;7.180;2023-03-18T06:01:51;187.10;;;180.43;;
13250;SDS011;6692;50.710;7.180;2023-03-18T06:03:52;190.50;;;183.80;;
13250;SDS011;6692;50.710;7.180;2023-03-18T06:05:54;191.77;;;185.00;;
13250;SDS011;6692;50.710;7.180;2023-03-18T06:07:54;197.07;;;190.27;;
13250;SDS011;6692;50.710;7.180;2023-03-18T06:09:56;194.73;;;187.80;;
13250;SDS011;6692;50.710;7.180;2023-03-18T06:11:57;215.87;;;208.30;;
13250;SDS011;6692;50.710;7.180;2023-03-18T06:13:58;202.63;;;195.63;;
13250;SDS011;6692;50.710;7.180;2023-03-18T06:15:59;192.53;;;185.87;;
13250;SDS011;6692;50.710;7.180;2023-03-18T06:18:00;209.00;;;201.63;;
13250;SDS011;6692;50.710;7.180;2023-03-18T06:20:03;207.53;;;200.10;;
13250;SDS011;6692;50.710;7.180;2023-03-18T06:22:03;208.43;;;200.93;;
13250;SDS011;6692;50.710;7.180;2023-03-18T06:24:04;212.70;;;205.03;;
13250;SDS011;6692;50.710;7.180;2023-03-18T06:26:05;213.10;;;205.50;;
13250;SDS011;6692;50.710;7.180;2023-03-18T06:28:06;213.87;;;206.13;;
13250;SDS011;6692;50.710;7.180;2023-03-18T06:30:07;219.07;;;210.90;;
13250;SDS011;6692;50.710;7.180;2023-03-18T06:32:09;210.03;;;202.63;;
13250;SDS011;6692;50.710;7.180;2023-03-18T06:34:10;213.10;;;205.37;;
13250;SDS011;6692;50.710;7.180;2023-03-18T06:36:11;218.70;;;210.97;;
13250;SDS011;6692;50.710;7.180;2023-03-18T06:38:12;212.43;;;204.87;;
13250;SDS011;6692;50.710;7.180;2023-03-18T06:40:13;210.63;;;203.20;;
13250;SDS011;6692;50.710;7.180;2023-03-18T06:42:14;211.53;;;204.17;;
13250;SDS011;6692;50.710;7.180;2023-03-18T06:44:16;206.63;;;199.43;;
13250;SDS011;6692;50.710;7.180;2023-03-18T06:46:17;206.10;;;198.77;;
13250;SDS011;6692;50.710;7.180;2023-03-18T06:48:17;215.97;;;208.50;;
13250;SDS011;6692;50.710;7.180;2023-03-18T06:50:18;220.33;;;212.63;;
13250;SDS011;6692;50.710;7.180;2023-03-18T06:52:19;218.23;;;210.53;;
13250;SDS011;6692;50.710;7.180;2023-03-18T06:54:20;243.63;;;234.97;;
13250;SDS011;6692;50.710;7.180;2023-03-18T06:56:21;227.83;;;219.83;;
13250;SDS011;6692;50.710;7.180;2023-03-18T06:58:22;237.77;;;229.57;;
13250;SDS011;6692;50.710;7.180;2023-03-18T07:00:23;239.57;;;231.27;;
13250;SDS011;6692;50.710;7.180;2023-03-18T07:02:24;247.87;;;238.90;;
13250;SDS011;6692;50.710;7.180;2023-03-18T07:04:25;245.30;;;236.67;;
13250;SDS011;6692;50.710;7.180;2023-03-18T07:06:26;257.60;;;248.47;;
13250;SDS011;6692;50.710;7.180;2023-03-18T07:08:27;259.63;;;250.60;;
13250;SDS011;6692;50.710;7.180;2023-03-18T07:10:29;266.83;;;257.37;;
13250;SDS011;6692;50.710;7.180;2023-03-18T07:12:29;276.80;;;267.07;;
13250;SDS011;6692;50.710;7.180;2023-03-18T07:14:31;289.30;;;279.10;;
13250;SDS011;6692;50.710;7.180;2023-03-18T07:16:31;279.43;;;269.70;;
13250;SDS011;6692;50.710;7.180;2023-03-18T07:18:33;294.73;;;284.23;;
13250;SDS011;6692;50.710;7.180;2023-03-18T07:20:34;284.00;;;274.00;;
13250;SDS011;6692;50.710;7.180;2023-03-18T07:22:34;295.57;;;285.03;;
13250;SDS011;6692;50.710;7.180;2023-03-18T07:24:36;295.73;;;285.30;;
13250;SDS011;6692;50.710;7.180;2023-03-18T07:26:37;290.63;;;280.20;;
13250;SDS011;6692;50.710;7.180;2023-03-18T07:28:39;295.63;;;285.23;;
13250;SDS011;6692;50.710;7.180;2023-03-18T07:30:40;314.40;;;303.23;;
13250;SDS011;6692;50.710;7.180;2023-03-18T07:32:42;316.87;;;305.50;;
13250;SDS011;6692;50.710;7.180;2023-03-18T07:34:43;322.40;;;310.83;;
13250;SDS011;6692;50.710;7.180;2023-03-18T07:36:43;332.67;;;320.90;;
13250;SDS011;6692;50.710;7.180;2023-03-18T07:38:44;312.43;;;301.37;;
13250;SDS011;6692;50.710;7.180;2023-03-18T07:40:45;312.60;;;301.33;;
13250;SDS011;6692;50.710;7.180;2023-03-18T07:42:45;330.00;;;318.23;;
13250;SDS011;6692;50.710;7.180;2023-03-18T07:44:46;329.03;;;317.17;;
13250;SDS011;6692;50.710;7.180;2023-03-18T07:46:47;318.17;;;306.90;;
13250;SDS011;6692;50.710;7.180;2023-03-18T07:48:48;347.97;;;335.30;;
13250;SDS011;6692;50.710;7.180;2023-03-18T07:50:49;349.50;;;336.53;;
13250;SDS011;6692;50.710;7.180;2023-03-18T07:52:51;352.50;;;339.50;;
13250;SDS011;6692;50.710;7.180;2023-03-18T07:54:51;379.63;;;365.73;;
13250;SDS011;6692;50.710;7.180;2023-03-18T07:56:52;362.20;;;349.00;;
13250;SDS011;6692;50.710;7.180;2023-03-18T07:58:53;357.93;;;344.93;;
13250;SDS011;6692;50.710;7.180;2023-03-18T08:00:54;368.77;;;355.27;;
13250;SDS011;6692;50.710;7.180;2023-03-18T08:02:55;380.43;;;366.57;;
13250;SDS011;6692;50.710;7.180;2023-03-18T08:04:56;378.53;;;364.63;;
13250;SDS011;6692;50.710;7.180;2023-03-18T08:06:56;383.47;;;369.20;;
13250;SDS011;6692;50.710;7.180;2023-03-18T08:08:57;394.60;;;379.83;;
13250;SDS011;6692;50.710;7.180;2023-03-18T08:10:59;422.53;;;406.47;;
13250;SDS011;6692;50.710;7.180;2023-03-18T08:12:59;420.07;;;404.10;;
13250;SDS011;6692;50.710;7.180;2023-03-18T08:15:00;424.00;;;407.83;;
13250;SDS011;6692;50.710;7.180;2023-03-18T08:17:02;429.27;;;412.80;;
13250;SDS011;6692;50.710;7.180;2023-03-18T08:19:03;445.47;;;428.30;;
13250;SDS011;6692;50.710;7.180;2023-03-18T08:21:04;468.73;;;451.03;;
13250;SDS011;6692;50.710;7.180;2023-03-18T08:23:05;467.20;;;449.07;;
13250;SDS011;6692;50.710;7.180;2023-03-18T08:25:06;455.37;;;437.93;;
13250;SDS011;6692;50.710;7.180;2023-03-18T08:27:07;451.10;;;433.67;;
13250;SDS011;6692;50.710;7.180;2023-03-18T08:29:08;414.90;;;399.43;;
13250;SDS011;6692;50.710;7.180;2023-03-18T08:31:09;438.10;;;421.60;;
13250;SDS011;6692;50.710;7.180;2023-03-18T08:33:10;461.83;;;444.03;;
13250;SDS011;6692;50.710;7.180;2023-03-18T08:35:11;460.67;;;443.03;;
13250;SDS011;6692;50.710;7.180;2023-03-18T08:37:11;457.17;;;439.33;;
13250;SDS011;6692;50.710;7.180;2023-03-18T08:39:12;474.77;;;456.40;;
13250;SDS011;6692;50.710;7.180;2023-03-18T08:41:13;486.67;;;467.80;;
13250;SDS011;6692;50.710;7.180;2023-03-18T08:43:14;506.40;;;486.23;;
13250;SDS011;6692;50.710;7.180;2023-03-18T08:45:15;522.40;;;501.67;;
13250;SDS011;6692;50.710;7.180;2023-03-18T08:47:16;542.63;;;520.97;;
13250;SDS011;6692;50.710;7.180;2023-03-18T08:49:17;536.73;;;514.97;;
13250;SDS011;6692;50.710;7.180;2023-03-18T08:51:17;545.40;;;523.27;;
13250;SDS011;6692;50.710;7.180;2023-03-18T08:53:19;543.17;;;521.00;;
13250;SDS011;6692;50.710;7.180;2023-03-18T08:55:22;542.87;;;520.93;;
13250;SDS011;6692;50.710;7.180;2023-03-18T08:57:22;570.17;;;546.10;;
13250;SDS011;6692;50.710;7.180;2023-03-18T08:59:23;568.33;;;545.00;;
13250;SDS011;6692;50.710;7.180;2023-03-18T09:01:23;558.63;;;535.80;;
13250;SDS011;6692;50.710;7.180;2023-03-18T09:03:24;567.40;;;543.87;;
13250;SDS011;6692;50.710;7.180;2023-03-18T09:05:25;571.57;;;547.70;;
13250;SDS011;6692;50.710;7.180;2023-03-18T09:07:26;554.30;;;531.77;;
13250;SDS011;6692;50.710;7.180;2023-03-18T09:09:26;562.90;;;540.17;;
13250;SDS011;6692;50.710;7.180;2023-03-18T09:11:27;515.83;;;495.10;;
13250;SDS011;6692;50.710;7.180;2023-03-18T09:13:28;529.30;;;508.10;;
13250;SDS011;6692;50.710;7.180;2023-03-18T09:15:29;539.70;;;518.13;;
13250;SDS011;6692;50.710;7.180;2023-03-18T09:17:31;536.87;;;515.43;;
13250;SDS011;6692;50.710;7.180;2023-03-18T09:19:31;518.10;;;497.53;;
13250;SDS011;6692;50.710;7.180;2023-03-18T09:21:33;522.50;;;501.97;;
13250;SDS011;6692;50.710;7.180;2023-03-18T09:23:33;495.97;;;476.80;;
13250;SDS011;6692;50.710;7.180;2023-03-18T09:25:34;550.83;;;528.80;;
13250;SDS011;6692;50.710;7.180;2023-03-18T09:27:36;516.00;;;495.73;;
13250;SDS011;6692;50.710;7.180;2023-03-18T09:29:36;534.40;;;513.00;;
13250;SDS011;6692;50.710;7.180;2023-03-18T09:31:37;531.63;;;510.23;;
13250;SDS011;6692;50.710;7.180;2023-03-18T09:33:39;499.77;;;480.30;;
13250;SDS011;6692;50.710;7.180;2023-03-18T09:35:40;508.27;;;488.63;;
13250;SDS011;6692;50.710;7.180;2023-03-18T09:37:41;483.73;;;465.03;;
13250;SDS011;6692;50.710;7.180;2023-03-18T09:39:41;508.33;;;488.60;;
13250;SDS011;6692;50.710;7.180;2023-03-18T09:42:19;528.07;;;507.33;;
13250;SDS011;6692;50.710;7.180;2023-03-18T09:44:08;432.97;;;416.77;;
13250;SDS011;6692;50.710;7.180;2023-03-18T09:46:22;447.47;;;430.43;;
13250;SDS011;6692;50.710;7.180;2023-03-18T09:50:49;475.10;;;456.93;;
13250;SDS011;6692;50.710;7.180;2023-03-18T09:52:49;493.60;;;474.57;;
13250;SDS011;6692;50.710;7.180;2023-03-18T09:56:56;470.37;;;452.20;;
13250;SDS011;6692;50.710;7.180;2023-03-18T09:59:05;470.90;;;452.93;;
13250;SDS011;6692;50.710;7.180;2023-03-18T10:01:15;444.23;;;427.57;;
13250;SDS011;6692;50.710;7.180;2023-03-18T10:03:22;461.30;;;444.17;;
13250;SDS011;6692;50.710;7.180;2023-03-18T10:05:25;457.63;;;440.63;;
13250;SDS011;6692;50.710;7.180;2023-03-18T10:07:27;460.00;;;442.47;;
13250;SDS011;6692;50.710;7.180;2023-03-18T10:09:30;461.77;;;444.23;;
13250;SDS011;6692;50.710;7.180;2023-03-18T10:11:36;452.87;;;435.83;;
13250;SDS011;6692;50.710;7.180;2023-03-18T10:13:38;473.33;;;455.53;;
13250;SDS011;6692;50.710;7.180;2023-03-18T10:15:40;384.27;;;370.37;;
13250;SDS011;6692;50.710;7.180;2023-03-18T10:17:43;386.57;;;372.53;;
13250;SDS011;6692;50.710;7.180;2023-03-18T10:19:48;395.90;;;381.33;;
13250;SDS011;6692;50.710;7.180;2023-03-18T10:21:52;422.07;;;406.33;;
13250;SDS011;6692;50.710;7.180;2023-03-18T10:23:54;441.67;;;425.07;;
13250;SDS011;6692;50.710;7.180;2023-03-18T10:25:55;457.23;;;440.20;;
13250;SDS011;6692;50.710;7.180;2023-03-18T10:27:59;424.63;;;409.00;;
13250;SDS011;6692;50.710;7.180;2023-03-18T10:30:02;436.47;;;420.33;;
13250;SDS011;6692;50.710;7.180;2023-03-18T10:32:06;443.83;;;427.23;;
13250;SDS011;6692;50.710;7.180;2023-03-18T10:34:14;411.53;;;396.30;;
13250;SDS011;6692;50.710;7.180;2023-03-18T10:36:17;431.83;;;415.67;;
13250;SDS011;6692;50.710;7.180;2023-03-18T10:38:21;456.77;;;439.50;;
13250;SDS011;6692;50.710;7.180;2023-03-18T10:40:21;428.90;;;413.13;;
13250;SDS011;6692;50.710;7.180;2023-03-18T10:42:23;385.77;;;371.63;;
13250;SDS011;6692;50.710;7.180;2023-03-18T10:44:25;396.50;;;382.20;;
13250;SDS011;6692;50.710;7.180;2023-03-18T10:46:27;407.73;;;392.70;;
13250;SDS011;6692;50.710;7.180;2023-03-18T10:48:30;429.20;;;413.40;;
13250;SDS011;6692;50.710;7.180;2023-03-18T10:50:31;390.03;;;375.67;;
13250;SDS011;6692;50.710;7.180;2023-03-18T10:52:36;406.70;;;391.50;;
13250;SDS011;6692;50.710;7.180;2023-03-18T10:54:38;424.03;;;408.40;;
13250;SDS011;6692;50.710;7.180;2023-03-18T10:56:38;429.83;;;414.03;;
13250;SDS011;6692;50.710;7.180;2023-03-18T10:58:40;422.17;;;406.60;;
13250;SDS011;6692;50.710;7.180;2023-03-18T11:00:40;383.73;;;370.03;;
13250;SDS011;6692;50.710;7.180;2023-03-18T11:02:41;413.33;;;398.13;;
13250;SDS011;6692;50.710;7.180;2023-03-18T11:04:45;412.00;;;396.87;;
13250;SDS011;6692;50.710;7.180;2023-03-18T11:06:45;421.53;;;405.97;;
13250;SDS011;6692;50.710;7.180;2023-03-18T11:08:46;411.93;;;396.63;;
13250;SDS011;6692;50.710;7.180;2023-03-18T11:10:46;341.50;;;329.50;;
13250;SDS011;6692;50.710;7.180;2023-03-18T11:12:47;432.47;;;416.43;;
13250;SDS011;6692;50.710;7.180;2023-03-18T11:14:48;439.73;;;423.33;;
13250;SDS011;6692;50.710;7.180;2023-03-18T11:16:55;446.87;;;430.00;;
13250;SDS011;6692;50.710;7.180;2023-03-18T11:18:49;490.73;;;471.63;;
13250;SDS011;6692;50.710;7.180;2023-03-18T11:20:54;474.93;;;456.80;;
13250;SDS011;6692;50.710;7.180;2023-03-18T11:22:53;475.87;;;458.03;;
13250;SDS011;6692;50.710;7.180;2023-03-18T11:25:01;459.80;;;442.63;;
13250;SDS011;6692;50.710;7.180;2023-03-18T11:27:01;491.33;;;472.60;;
13250;SDS011;6692;50.710;7.180;2023-03-18T11:29:05;504.30;;;484.67;;
13250;SDS011;6692;50.710;7.180;2023-03-18T11:31:05;469.10;;;451.50;;
13250;SDS011;6692;50.710;7.180;2023-03-18T11:33:13;488.27;;;469.73;;
13250;SDS011;6692;50.710;7.180;2023-03-18T11:35:17;422.03;;;406.50;;
13250;SDS011;6692;50.710;7.180;2023-03-18T11:37:14;459.43;;;442.27;;
13250;SDS011;6692;50.710;7.180;2023-03-18T11:39:15;487.77;;;468.90;;
13250;SDS011;6692;50.710;7.180;2023-03-18T11:41:21;462.30;;;444.83;;
13250;SDS011;6692;50.710;7.180;2023-03-18T11:43:21;511.83;;;491.83;;
13250;SDS011;6692;50.710;7.180;2023-03-18T11:45:28;530.13;;;509.13;;